Time;durP1;ratioP1;P1;durP2;ratioP2;P2;SDS_P1;SDS_P2;PMS_P1;PMS_P2;Temp;Humidity;BMP_temperature;BMP_pressure;BME280_temperature;BME280_humidity;BME280_pressure;Samples;Min_cycle;Max_cycle;Signal;HPM_P1;HPM_P2
2022/06/13 00:00:28;;;;;;;11.07;7.83;;;;;;;19.44;56.25;99637.06;5034529;28;20433;-81
2022/06/13 00:02:55;;;;;;;12.50;6.33;;;;;;;19.36;56.47;99636.97;5034914;28;20917;-81
2022/06/13 00:05:23;;;;;;;3.07;1.47;;;;;;;19.21;57.58;99636.50;5034291;28;20982;-81
2022/06/13 00:07:50;;;;;;;2.90;1.50;;;;;;;18.99;59.41;99637.66;5034482;28;20527;-81
2022/06/13 00:10:17;;;;;;;3.47;2.00;;;;;;;18.70;61.25;99645.75;5034863;28;20495;-81
2022/06/13 00:12:45;;;;;;;5.30;1.40;;;;;;;18.47;62.41;99651.44;5034314;28;20951;-81
2022/06/13 00:15:14;;;;;;;3.00;1.53;;;;;;;18.39;63.17;99654.00;5034426;28;20431;-81
2022/06/13 00:17:40;;;;;;;2.15;1.70;;;;;;;18.37;63.97;99641.50;5034535;28;21038;-81
2022/06/13 00:20:08;;;;;;;3.67;1.75;;;;;;;18.23;64.92;99645.47;5034215;28;20214;-81
2022/06/13 00:22:36;;;;;;;4.57;1.55;;;;;;;18.22;65.41;99649.19;5034358;28;20225;-81
2022/06/13 00:25:03;;;;;;;1.87;1.50;;;;;;;18.17;65.66;99663.22;5034451;28;20197;-81
2022/06/13 00:27:30;;;;;;;2.75;1.70;;;;;;;18.02;66.23;99649.13;5033900;28;20598;-81
2022/06/13 00:29:56;;;;;;;1.80;1.45;;;;;;;17.80;67.96;99655.53;5034185;28;20682;-80
2022/06/13 00:32:23;;;;;;;2.53;1.70;;;;;;;17.87;68.12;99658.63;5033467;28;20190;-81
2022/06/13 00:34:50;;;;;;;2.90;1.70;;;;;;;17.93;68.25;99663.50;5033563;28;20189;-81
2022/06/13 00:37:17;;;;;;;5.68;1.90;;;;;;;18.06;67.71;99656.00;5033976;28;20229;-81
2022/06/13 00:39:45;;;;;;;2.90;1.63;;;;;;;18.03;68.12;99661.72;5034239;28;20612;-80
2022/06/13 00:42:18;;;;;;;3.25;1.70;;;;;;;17.91;69.23;99665.53;5033880;28;20702;-81
2022/06/13 00:45:08;;;;;;;3.22;1.70;;;;;;;17.77;70.27;99668.56;5034085;28;20211;-81
2022/06/13 00:47:35;;;;;;;4.03;1.80;;;;;;;17.66;70.81;99672.19;5034118;28;20194;-80
2022/06/13 00:50:04;;;;;;;3.30;1.75;;;;;;;17.77;71.05;99674.00;5033500;28;20715;-81
2022/06/13 00:52:40;;;;;;;4.55;1.98;;;;;;;17.64;71.87;99682.38;5034059;28;20192;-81
2022/06/13 00:55:11;;;;;;;3.00;1.70;;;;;;;17.60;72.40;99684.50;5033681;28;20679;-80
2022/06/13 00:57:38;;;;;;;4.18;1.55;;;;;;;17.69;72.03;99680.97;5033603;28;20742;-80
2022/06/13 01:00:09;;;;;;;5.05;1.95;;;;;;;17.39;73.93;99676.31;5033192;28;20196;-81
2022/06/13 01:02:38;;;;;;;5.80;2.00;;;;;;;17.35;74.40;99684.88;5033636;28;20186;-82
2022/06/13 01:05:06;;;;;;;2.65;1.73;;;;;;;17.35;74.36;99688.47;5033779;28;20193;-82
2022/06/13 01:07:33;;;;;;;2.95;1.70;;;;;;;17.46;74.01;99682.97;5031747;28;20189;-81
2022/06/13 01:12:47;;;;;;;3.80;2.10;;;;;;;17.55;73.45;99684.03;5033187;28;20192;-81
2022/06/13 01:15:29;;;;;;;3.15;1.88;;;;;;;17.42;73.88;99688.81;5033251;28;20710;-82
2022/06/13 01:18:07;;;;;;;2.45;1.65;;;;;;;17.40;74.35;99678.03;5033095;28;20307;-80
2022/06/13 01:20:54;;;;;;;2.40;1.65;;;;;;;17.30;75.12;99682.56;5033440;28;20646;-82
2022/06/13 01:23:56;;;;;;;3.78;1.80;;;;;;;17.04;77.03;99693.75;5033249;28;20220;-81
2022/06/13 01:27:02;;;;;;;4.97;2.33;;;;;;;16.99;77.87;99695.16;5026562;28;20204;-81
2022/06/13 01:29:50;;;;;;;4.00;1.63;;;;;;;16.88;79.44;99687.88;5012955;28;20279;-80
2022/06/13 01:32:42;;;;;;;4.97;2.08;;;;;;;16.75;81.03;99696.13;5013219;28;20184;-80
2022/06/13 01:35:23;;;;;;;3.25;1.83;;;;;;;16.79;81.73;99692.22;5012064;28;20247;-81
2022/06/13 01:38:12;;;;;;;2.78;1.75;;;;;;;16.75;82.21;99698.00;5020245;28;20245;-80
2022/06/13 01:41:07;;;;;;;4.38;1.70;;;;;;;16.64;83.48;99698.88;5032917;28;20187;-80
2022/06/13 01:43:46;;;;;;;3.67;1.90;;;;;;;16.75;82.64;99698.84;5032591;28;20191;-81
2022/06/13 01:46:22;;;;;;;2.53;1.80;;;;;;;16.72;82.56;99701.84;5032024;28;20186;-81
2022/06/13 01:48:56;;;;;;;4.82;2.13;;;;;;;16.73;82.45;99698.09;5032493;28;20196;-81
2022/06/13 01:51:28;;;;;;;3.45;2.13;;;;;;;16.65;83.02;99690.59;5032104;28;20281;-81
2022/06/13 01:54:09;;;;;;;3.22;2.00;;;;;;;16.71;82.85;99675.66;5013466;28;20195;-81
2022/06/13 01:56:46;;;;;;;5.70;2.40;;;;;;;16.68;83.63;99678.59;5012915;28;20281;-81
2022/06/13 01:59:17;;;;;;;4.55;1.75;;;;;;;16.75;82.89;99681.69;5031092;28;20561;-81
2022/06/13 02:01:50;;;;;;;4.68;2.05;;;;;;;16.70;83.41;99683.91;5032434;28;20277;-81
2022/06/13 02:04:23;;;;;;;3.00;1.85;;;;;;;16.76;82.71;99683.44;5032653;28;20280;-81
2022/06/13 02:06:58;;;;;;;3.58;1.80;;;;;;;16.73;83.56;99687.22;5032555;28;20218;-81
2022/06/13 02:09:29;;;;;;;4.45;1.80;;;;;;;16.50;85.39;99701.84;5032175;28;20393;-81
2022/06/13 02:11:56;;;;;;;3.67;2.00;;;;;;;16.47;86.18;99694.81;5032419;28;20186;-81
2022/06/13 02:14:30;;;;;;;4.05;2.33;;;;;;;16.24;88.63;99702.97;5032292;28;20186;-80
2022/06/13 02:17:02;;;;;;;4.60;2.50;;;;;;;16.31;88.55;99699.78;5032015;28;20666;-81
2022/06/13 02:19:34;;;;;;;2.95;2.15;;;;;;;16.30;89.05;99693.44;5032090;28;20194;-81
2022/06/13 02:22:08;;;;;;;5.75;2.45;;;;;;;16.18;90.18;99694.44;5032438;28;20182;-82
2022/06/13 02:24:39;;;;;;;3.10;2.58;;;;;;;16.11;90.84;99699.50;5031945;28;20186;-81
2022/06/13 02:27:08;;;;;;;3.83;2.17;;;;;;;16.07;91.38;99687.16;5012403;28;20202;-80
2022/06/13 02:29:38;;;;;;;6.40;2.40;;;;;;;16.11;91.36;99687.78;5012358;28;20281;-82
2022/06/13 02:32:09;;;;;;;6.10;2.83;;;;;;;16.05;91.66;99695.44;5030925;28;20651;-80
2022/06/13 02:34:42;;;;;;;6.93;3.30;;;;;;;16.08;91.50;99682.56;5032359;28;20284;-81
2022/06/13 02:37:13;;;;;;;6.15;2.53;;;;;;;16.22;90.37;99679.63;5012653;28;20210;-82
2022/06/13 02:39:43;;;;;;;4.43;2.20;;;;;;;16.37;89.13;99677.50;5012054;28;20274;-80
2022/06/13 02:42:16;;;;;;;3.28;2.13;;;;;;;16.28;89.47;99676.44;5012666;28;20287;-80
2022/06/13 02:44:48;;;;;;;3.00;2.65;;;;;;;16.30;89.33;99682.59;5012658;28;20521;-80
2022/06/13 02:47:20;;;;;;;3.83;2.35;;;;;;;16.32;89.48;99679.75;5032061;28;20613;-81
2022/06/13 02:49:55;;;;;;;3.60;2.30;;;;;;;15.92;92.84;99680.22;5031697;28;20186;-81
2022/06/13 02:52:28;;;;;;;4.13;2.25;;;;;;;16.09;92.16;99687.91;5032416;28;21101;-80
2022/06/13 02:54:58;;;;;;;5.63;2.92;;;;;;;15.98;93.58;99685.16;5030794;28;20220;-80
2022/06/13 02:57:53;;;;;;;5.78;2.60;;;;;;;15.80;95.63;99687.47;5013218;28;20218;-79
2022/06/13 03:00:25;;;;;;;4.15;2.30;;;;;;;15.66;98.09;99699.38;5015971;28;20588;-81
2022/06/13 03:02:59;;;;;;;5.85;2.65;;;;;;;15.75;97.06;99692.41;5016112;28;20302;-81
2022/06/13 03:05:47;;;;;;;4.97;2.83;;;;;;;15.50;99.17;99701.56;5021835;28;20182;-80
2022/06/13 03:08:40;;;;;;;5.25;2.80;;;;;;;15.46;100.00;99700.91;5035572;28;20273;-81
2022/06/13 03:11:16;;;;;;;4.75;3.05;;;;;;;15.63;99.63;99697.78;4992312;28;20240;-82
2022/06/13 03:13:55;;;;;;;6.88;2.67;;;;;;;15.60;98.79;99702.56;5035549;28;20186;-81
2022/06/13 03:16:27;;;;;;;7.88;3.47;;;;;;;15.60;98.61;99700.75;5035097;28;20194;-81
2022/06/13 03:18:58;;;;;;;5.28;2.65;;;;;;;15.88;96.81;99698.63;5035454;28;20206;-80
2022/06/13 03:21:33;;;;;;;5.25;4.00;;;;;;;15.91;96.55;99697.50;5034807;28;20284;-81
2022/06/13 03:24:10;;;;;;;3.75;3.00;;;;;;;15.74;97.81;99701.56;5035644;28;20281;-80
2022/06/13 03:26:43;;;;;;;6.43;3.40;;;;;;;15.71;97.73;99712.63;5030154;28;20186;-80
2022/06/13 03:29:14;;;;;;;4.53;2.90;;;;;;;15.67;98.23;99716.53;5014984;28;20231;-80
2022/06/13 03:31:45;;;;;;;4.18;3.20;;;;;;;15.55;99.91;99718.34;5015272;28;20283;-80
2022/06/13 03:34:18;;;;;;;4.43;2.85;;;;;;;15.59;99.59;99720.72;5015487;28;20639;-80
2022/06/13 03:36:51;;;;;;;6.00;2.78;;;;;;;15.52;100.00;99716.75;5015332;28;20183;-81
2022/06/13 03:39:22;;;;;;;7.30;3.25;;;;;;;15.28;100.00;99722.19;5015021;28;20277;-81
2022/06/13 03:41:52;;;;;;;5.43;3.00;;;;;;;15.29;100.00;99725.78;5014859;28;20278;-81
2022/06/13 03:44:24;;;;;;;7.40;3.38;;;;;;;15.46;100.00;99724.47;5015772;28;20536;-81
2022/06/13 03:46:55;;;;;;;7.50;3.40;;;;;;;15.56;100.00;99722.81;5034313;28;20277;-82
2022/06/13 03:49:27;;;;;;;3.75;2.53;;;;;;;15.46;100.00;99730.75;5034494;28;20278;-81
2022/06/13 03:51:58;;;;;;;4.15;3.08;;;;;;;15.52;100.00;99735.72;5031824;28;20221;-80
2022/06/13 03:54:30;;;;;;;5.05;3.25;;;;;;;15.43;100.00;99731.00;5016057;28;20605;-81
2022/06/13 03:57:01;;;;;;;4.95;2.75;;;;;;;15.34;100.00;99739.84;5033856;28;20365;-80
2022/06/13 03:59:32;;;;;;;4.93;2.60;;;;;;;15.32;100.00;99741.81;5034977;28;20244;-81
2022/06/13 04:02:03;;;;;;;8.32;3.22;;;;;;;15.38;100.00;99738.66;5034543;28;20573;-81
2022/06/13 04:04:34;;;;;;;4.53;2.88;;;;;;;15.51;100.00;99742.16;5027014;28;20276;-80
2022/06/13 04:07:03;;;;;;;4.18;2.63;;;;;;;15.48;100.00;99738.81;5034412;28;20269;-80
2022/06/13 04:09:33;;;;;;;7.35;3.00;;;;;;;15.32;100.00;99739.09;5033906;28;20193;-81
2022/06/13 04:12:13;;;;;;;8.07;2.90;;;;;;;15.20;100.00;99747.19;5034151;28;20262;-81
2022/06/13 04:15:03;;;;;;;7.80;3.10;;;;;;;15.26;100.00;99744.97;5029764;28;20287;-79
2022/06/13 04:17:37;;;;;;;5.40;3.60;;;;;;;15.34;100.00;99753.41;5018795;28;20261;-80
2022/06/13 04:20:18;;;;;;;4.15;3.05;;;;;;;15.35;100.00;99749.72;5033784;28;20276;-81
2022/06/13 04:22:52;;;;;;;4.43;3.40;;;;;;;15.37;100.00;99745.91;5034176;28;20213;-80
2022/06/13 04:25:26;;;;;;;5.78;3.40;;;;;;;15.28;100.00;99748.44;5033778;28;20269;-81
2022/06/13 04:27:58;;;;;;;5.75;2.95;;;;;;;15.38;100.00;99752.22;5034133;28;20319;-81
2022/06/13 04:30:29;;;;;;;7.50;3.00;;;;;;;15.27;100.00;99757.56;5035278;28;20187;-77
2022/06/13 04:33:01;;;;;;;7.28;4.10;;;;;;;15.34;100.00;99748.00;5032367;28;20196;-77
2022/06/13 04:35:30;;;;;;;6.70;3.60;;;;;;;15.50;100.00;99759.41;5015301;28;20277;-79
2022/06/13 04:38:01;;;;;;;5.00;3.10;;;;;;;15.29;100.00;99761.91;5019938;28;20206;-78
2022/06/13 04:40:30;;;;;;;6.53;3.88;;;;;;;15.35;100.00;99766.88;5031321;28;20579;-76
2022/06/13 04:42:58;;;;;;;4.22;3.50;;;;;;;15.41;100.00;99769.09;5034625;28;20215;-76
2022/06/13 04:45:28;;;;;;;7.15;3.35;;;;;;;15.39;100.00;99764.78;5034572;28;20285;-78
2022/06/13 04:47:57;;;;;;;4.43;3.10;;;;;;;15.48;100.00;99765.94;5034954;28;20269;-79
2022/06/13 04:50:31;;;;;;;5.15;3.40;;;;;;;15.61;100.00;99767.59;5034928;28;20303;-80
2022/06/13 04:53:01;;;;;;;9.38;3.92;;;;;;;15.62;100.00;99768.44;5015677;28;20994;-79
2022/06/13 04:55:33;;;;;;;4.00;3.45;;;;;;;15.77;100.00;99778.19;5014764;28;20187;-77
2022/06/13 04:58:00;;;;;;;6.07;3.95;;;;;;;16.14;100.00;99774.44;5015176;28;20217;-79
2022/06/13 05:00:28;;;;;;;7.78;3.35;;;;;;;16.24;98.32;99783.63;5014735;28;20933;-78
2022/06/13 05:02:57;;;;;;;6.63;3.50;;;;;;;16.44;96.71;99776.59;5020104;28;20281;-79
2022/06/13 05:05:41;;;;;;;5.82;4.45;;;;;;;16.64;94.09;99781.31;5033715;28;20208;-79
2022/06/13 05:08:14;;;;;;;6.55;3.53;;;;;;;16.63;93.40;99778.72;5034431;28;20182;-77
2022/06/13 05:10:44;;;;;;;6.65;3.78;;;;;;;16.62;94.50;99782.41;5034433;28;20613;-77
2022/06/13 05:13:10;;;;;;;7.38;3.85;;;;;;;16.90;91.79;99782.94;5028349;28;20186;-77
2022/06/13 05:15:37;;;;;;;6.63;4.22;;;;;;;17.24;87.48;99789.19;5033618;28;20183;-78
2022/06/13 05:18:38;;;;;;;5.30;3.95;;;;;;;17.61;82.92;99794.25;5033780;28;20680;-78
2022/06/13 05:21:20;;;;;;;5.70;4.72;;;;;;;17.83;80.63;99793.34;4999371;28;20288;-79
2022/06/13 05:24:03;;;;;;;9.25;4.78;;;;;;;17.80;81.74;99801.75;5033498;28;20234;-76
2022/06/13 05:26:30;;;;;;;9.10;4.47;;;;;;;17.75;82.24;99795.81;5033197;28;20277;-78
2022/06/13 05:28:59;;;;;;;7.40;3.67;;;;;;;17.74;80.52;99794.94;5033498;28;20313;-77
2022/06/13 05:31:27;;;;;;;6.75;4.70;;;;;;;17.78;80.90;99801.88;5025192;28;20197;-78
2022/06/13 05:33:55;;;;;;;10.95;5.45;;;;;;;17.71;81.29;99801.53;5028771;28;20282;-78
2022/06/13 05:36:25;;;;;;;9.25;4.25;;;;;;;17.81;81.21;99803.47;5014301;28;20695;-77
2022/06/13 05:38:56;;;;;;;5.32;3.95;;;;;;;17.84;80.55;99806.84;5013488;28;20701;-77
2022/06/13 05:41:23;;;;;;;9.70;4.30;;;;;;;17.92;80.71;99798.00;5032648;28;20273;-78
2022/06/13 05:43:50;;;;;;;9.18;4.22;;;;;;;18.10;78.39;99795.56;5021558;28;20284;-78
2022/06/13 05:46:19;;;;;;;7.72;4.00;;;;;;;17.75;80.87;99806.72;5028136;28;20254;-78
2022/06/13 05:48:46;;;;;;;7.90;4.88;;;;;;;18.05;79.23;99809.56;5028393;28;20290;-75
2022/06/13 05:51:12;;;;;;;6.40;4.00;;;;;;;17.80;79.53;99808.06;5025258;28;20184;-78
2022/06/13 05:53:39;;;;;;;29.00;15.18;;;;;;;17.84;78.82;99809.56;5030623;28;20282;-78
2022/06/13 05:56:08;;;;;;;5.30;4.43;;;;;;;18.17;76.82;99802.19;5024410;28;20192;-79
2022/06/13 05:58:37;;;;;;;9.18;4.50;;;;;;;18.20;77.46;99806.50;5027895;28;20220;-79
2022/06/13 06:01:05;;;;;;;8.00;4.00;;;;;;;18.24;77.37;99821.63;5032717;28;20204;-79
2022/06/13 06:03:32;;;;;;;7.63;3.70;;;;;;;18.35;76.21;99816.09;5023444;28;20192;-78
2022/06/13 06:06:01;;;;;;;5.20;3.58;;;;;;;18.19;76.81;99812.97;5013260;28;20644;-80
2022/06/13 06:08:30;;;;;;;6.22;4.05;;;;;;;18.33;77.05;99815.34;5013381;28;20196;-80
2022/06/13 06:10:58;;;;;;;14.18;5.35;;;;;;;18.68;75.67;99819.59;5013306;28;20550;-80
2022/06/13 06:13:28;;;;;;;5.50;3.92;;;;;;;18.68;75.56;99816.88;5012631;28;20204;-79
2022/06/13 06:15:56;;;;;;;5.40;4.30;;;;;;;18.82;74.00;99821.97;5015316;28;20194;-79
2022/06/13 06:18:24;;;;;;;9.57;3.75;;;;;;;18.89;73.65;99827.75;5019518;28;20207;-78
2022/06/13 06:20:50;;;;;;;8.88;4.05;;;;;;;19.21;71.89;99827.59;5032954;28;20198;-79
2022/06/13 06:23:17;;;;;;;6.90;3.80;;;;;;;19.41;69.83;99830.38;5033111;28;20195;-79
2022/06/13 06:25:47;;;;;;;6.85;4.00;;;;;;;19.21;69.74;99835.78;5032965;28;20273;-78
2022/06/13 06:28:16;;;;;;;8.65;3.97;;;;;;;18.80;67.86;99832.16;5032728;28;20336;-78
2022/06/13 06:30:44;;;;;;;5.22;4.03;;;;;;;19.14;67.32;99831.88;5032924;28;20262;-79
2022/06/13 06:33:11;;;;;;;6.35;3.40;;;;;;;19.08;67.56;99832.41;5032784;28;20281;-78
2022/06/13 06:35:39;;;;;;;5.88;3.00;;;;;;;19.45;65.09;99838.16;5033033;28;20233;-79
2022/06/13 06:38:06;;;;;;;7.50;3.30;;;;;;;19.43;66.14;99831.97;5032433;28;20301;-79
2022/06/13 06:40:33;;;;;;;5.53;3.10;;;;;;;19.10;66.30;99836.72;5032547;28;20210;-78
2022/06/13 06:43:00;;;;;;;7.68;3.40;;;;;;;18.77;67.28;99840.63;5032862;28;20200;-78
2022/06/13 06:45:27;;;;;;;6.68;3.38;;;;;;;19.03;66.09;99848.34;5032970;28;20319;-78
2022/06/13 06:47:56;;;;;;;7.55;3.80;;;;;;;19.47;62.11;99837.97;5032257;28;20204;-77
2022/06/13 06:50:26;;;;;;;5.55;2.80;;;;;;;19.58;59.63;99848.78;5032902;28;20724;-78
2022/06/13 06:52:53;;;;;;;9.52;6.95;;;;;;;19.42;58.67;99854.78;5033282;28;20197;-77
2022/06/13 07:00:52;;;;;;;5.38;2.90;;;;;;;19.64;58.71;99852.84;5032586;28;20264;-78
2022/06/13 07:03:20;;;;;;;6.40;3.33;;;;;;;19.52;56.12;99861.16;5032644;28;20197;-79
2022/06/13 07:05:47;;;;;;;3.88;3.47;;;;;;;19.29;55.76;99855.06;5032662;28;20268;-79
2022/06/13 07:08:15;;;;;;;5.00;2.80;;;;;;;19.23;58.54;99861.06;5032210;28;20197;-80
2022/06/13 07:10:45;;;;;;;6.00;2.78;;;;;;;19.82;56.16;99853.91;5032733;28;20225;-79
2022/06/13 07:13:12;;;;;;;4.05;2.67;;;;;;;20.15;54.75;99855.34;5032474;28;20663;-78
2022/06/13 07:15:39;;;;;;;7.88;3.53;;;;;;;19.92;55.49;99862.09;5031996;28;20185;-78
2022/06/13 07:18:06;;;;;;;5.78;3.20;;;;;;;19.58;54.80;99860.59;5032189;28;20620;-78
2022/06/13 07:20:35;;;;;;;5.85;2.75;;;;;;;19.54;53.12;99863.75;5032098;28;20615;-79
2022/06/13 07:23:02;;;;;;;4.68;2.20;;;;;;;19.56;52.03;99864.47;5032225;28;20191;-78
2022/06/13 07:25:30;;;;;;;2.58;2.10;;;;;;;19.97;51.20;99871.59;5032358;28;20272;-79
2022/06/13 07:27:58;;;;;;;4.68;2.10;;;;;;;19.92;51.04;99862.97;5031418;28;20243;-79
2022/06/13 07:30:27;;;;;;;6.10;2.95;;;;;;;20.01;51.90;99863.97;5032473;28;20186;-79
2022/06/13 07:32:55;;;;;;;4.68;2.90;;;;;;;20.54;52.03;99866.25;5031942;28;20296;-78
2022/06/13 07:35:24;;;;;;;9.38;3.60;;;;;;;20.59;48.49;99869.44;5032313;28;20273;-80
2022/06/13 07:40:37;;;;;;;5.90;3.00;;;;;;;20.35;51.45;99867.16;5032271;28;20184;-78
2022/06/13 07:43:05;;;;;;;3.43;2.37;;;;;;;20.90;50.49;99869.22;5031976;28;20520;-79
2022/06/13 07:45:39;;;;;;;4.83;2.60;;;;;;;20.87;50.62;99872.25;5034868;28;20429;-79
2022/06/13 07:48:07;;;;;;;5.70;2.93;;;;;;;20.34;49.43;99878.22;5035464;28;20462;-79
2022/06/13 07:50:34;;;;;;;5.68;2.40;;;;;;;20.18;49.03;99874.19;5035646;28;20932;-79
2022/06/13 07:53:02;;;;;;;3.95;2.60;;;;;;;20.61;46.50;99870.16;5035664;28;20296;-78
2022/06/13 07:55:31;;;;;;;4.27;2.00;;;;;;;20.77;45.50;99864.06;5035764;28;20182;-78
2022/06/13 07:57:59;;;;;;;4.73;2.27;;;;;;;20.75;45.68;99867.97;5035104;28;20524;-78
2022/06/13 08:00:31;;;;;;;6.90;3.10;;;;;;;20.94;45.07;99870.66;5035146;28;20511;-78
2022/06/13 08:02:59;;;;;;;5.40;2.83;;;;;;;21.13;45.72;99861.47;5034922;28;20435;-78
2022/06/13 08:12:50;;;;;;;4.83;2.70;;;;;;;21.43;42.90;99863.09;5034800;28;20416;-79
2022/06/13 08:15:18;;;;;;;6.43;2.30;;;;;;;20.74;45.70;99864.38;5035230;28;20876;-78
2022/06/13 08:17:45;;;;;;;4.60;2.70;;;;;;;20.87;44.50;99857.69;5034538;28;20512;-79
2022/06/13 08:20:13;;;;;;;4.90;2.97;;;;;;;20.94;44.86;99856.06;5034978;28;20580;-78
2022/06/13 08:22:44;;;;;;;3.53;2.50;;;;;;;20.66;45.71;99849.69;5034991;28;20921;-78
2022/06/13 08:25:17;;;;;;;3.70;2.50;;;;;;;21.00;44.80;99858.22;5035216;28;20421;-78
2022/06/13 08:27:44;;;;;;;4.37;2.67;;;;;;;20.90;44.59;99858.28;5034398;28;20571;-79
2022/06/13 08:30:11;;;;;;;6.63;2.60;;;;;;;21.01;42.86;99849.88;5034611;28;20987;-78
2022/06/13 08:32:39;;;;;;;3.33;2.20;;;;;;;21.27;41.54;99860.13;5034411;28;20425;-78
2022/06/13 08:35:06;;;;;;;4.37;2.07;;;;;;;21.11;39.78;99854.44;5034290;28;20468;-78
2022/06/13 08:37:33;;;;;;;4.60;2.10;;;;;;;20.92;40.96;99867.19;5034293;28;20444;-78
2022/06/13 08:40:00;;;;;;;7.23;2.10;;;;;;;21.01;40.97;99860.81;5034192;28;20469;-78
2022/06/13 08:42:32;;;;;;;5.47;2.40;;;;;;;21.36;40.93;99863.84;5034292;28;20468;-78
2022/06/13 08:45:03;;;;;;;5.30;2.93;;;;;;;20.83;42.34;99863.47;5034619;28;20513;-77
2022/06/13 08:47:43;;;;;;;6.37;2.53;;;;;;;21.38;41.23;99857.19;5034114;28;20532;-78
2022/06/13 08:50:34;;;;;;;5.63;3.50;;;;;;;21.78;40.96;99855.09;5033920;28;20421;-78
2022/06/13 08:53:04;;;;;;;4.93;2.90;;;;;;;22.10;41.33;99862.78;5033670;28;20508;-78
2022/06/13 08:55:37;;;;;;;6.00;3.43;;;;;;;22.15;41.01;99860.44;5034070;28;20432;-78
2022/06/13 08:58:19;;;;;;;4.10;2.43;;;;;;;21.55;42.21;99865.63;5033916;28;20476;-77
2022/06/13 09:00:50;;;;;;;4.67;2.90;;;;;;;21.45;43.13;99868.41;5033844;28;21038;-77
2022/06/13 09:03:24;;;;;;;5.30;3.10;;;;;;;21.22;43.09;99867.94;5033690;28;20527;-77
2022/06/13 09:05:56;;;;;;;4.20;2.50;;;;;;;21.39;42.91;99875.34;5034054;28;20464;-77
2022/06/13 09:08:32;;;;;;;5.83;2.83;;;;;;;21.84;41.38;99870.91;5033634;28;20519;-78
2022/06/13 09:11:05;;;;;;;4.83;3.40;;;;;;;22.15;40.70;99865.06;5033782;28;20437;-79
2022/06/13 09:13:37;;;;;;;5.10;2.73;;;;;;;22.31;39.37;99873.47;5033859;28;20851;-78
2022/06/13 09:16:08;;;;;;;4.60;2.90;;;;;;;22.12;39.71;99865.38;5033540;28;20535;-78
2022/06/13 09:18:45;;;;;;;4.87;2.63;;;;;;;22.10;40.11;99872.91;5033584;28;20522;-78
2022/06/13 09:21:19;;;;;;;7.60;3.67;;;;;;;21.79;41.02;99873.25;5033587;28;20443;-78
2022/06/13 09:23:55;;;;;;;7.97;3.30;;;;;;;21.98;41.22;99872.25;5033548;28;20447;-78
2022/06/13 09:26:26;;;;;;;6.33;3.13;;;;;;;21.54;42.62;99878.47;5033859;28;20971;-78
2022/06/13 09:28:58;;;;;;;6.57;2.73;;;;;;;21.73;40.79;99887.56;5033475;28;20571;-78
2022/06/13 09:31:30;;;;;;;4.10;2.93;;;;;;;22.07;40.71;99885.06;5032877;28;20453;-78
2022/06/13 09:34:07;;;;;;;4.00;2.93;;;;;;;22.40;39.21;99886.22;5030665;28;20437;-78
2022/06/13 09:36:36;;;;;;;3.43;2.73;;;;;;;21.92;39.43;99878.38;5031770;28;20962;-77
2022/06/13 09:39:07;;;;;;;7.13;2.80;;;;;;;22.16;38.59;99886.84;5032055;28;20480;-79
2022/06/13 09:42:05;;;;;;;7.13;2.70;;;;;;;22.57;38.44;99884.50;5032581;28;20512;-78
2022/06/13 09:44:46;;;;;;;6.23;2.53;;;;;;;22.61;37.83;99883.16;5032457;28;20461;-79
2022/06/13 09:47:20;;;;;;;7.30;2.63;;;;;;;22.79;37.14;99884.97;5032341;28;20436;-78
2022/06/13 09:49:58;;;;;;;4.33;2.30;;;;;;;23.14;37.12;99896.91;5032335;28;20515;-79
2022/06/13 09:52:36;;;;;;;6.17;2.63;;;;;;;23.04;37.80;99895.16;5021213;28;20496;-79
2022/06/13 09:55:10;;;;;;;6.23;2.63;;;;;;;22.80;38.60;99886.72;5012432;28;20520;-79
2022/06/13 09:57:47;;;;;;;5.20;2.73;;;;;;;22.17;40.11;99894.03;5022122;28;20519;-80
2022/06/13 10:00:19;;;;;;;4.60;2.30;;;;;;;22.97;38.73;99891.25;5032869;28;20907;-78
2022/06/13 10:02:55;;;;;;;3.30;2.20;;;;;;;23.28;38.24;99886.16;5033411;28;20775;-79
2022/06/13 10:05:37;;;;;;;5.57;2.40;;;;;;;23.03;38.50;99885.16;5033069;28;20516;-78
2022/06/13 10:08:27;;;;;;;5.00;2.97;;;;;;;22.91;38.25;99889.19;5031383;28;20877;-78
2022/06/13 10:11:01;;;;;;;4.27;2.70;;;;;;;23.12;38.61;99893.47;5028253;28;20465;-79
2022/06/13 10:13:44;;;;;;;5.20;2.80;;;;;;;22.80;38.95;99893.06;5030628;28;20835;-79
2022/06/13 10:16:17;;;;;;;5.17;2.80;;;;;;;23.06;38.15;99897.72;5024152;28;20440;-80
2022/06/13 10:18:57;;;;;;;5.70;2.43;;;;;;;22.28;38.59;99903.97;5031963;28;20501;-79
2022/06/13 10:21:44;;;;;;;4.53;2.53;;;;;;;22.56;38.98;99899.22;5031798;28;20552;-80
2022/06/13 10:24:24;;;;;;;5.77;2.43;;;;;;;23.23;37.90;99887.69;5032138;28;20893;-80
2022/06/13 10:27:00;;;;;;;6.67;2.90;;;;;;;23.38;37.58;99890.66;5031732;28;20436;-78
2022/06/13 10:29:52;;;;;;;5.70;2.70;;;;;;;23.38;37.54;99883.31;4993725;28;20765;-80
2022/06/13 10:32:30;;;;;;;6.10;3.53;;;;;;;23.14;37.78;99889.53;4993620;28;20431;-79
2022/06/13 10:35:11;;;;;;;6.47;2.93;;;;;;;22.97;38.60;99888.53;4995900;28;20510;-80
2022/06/13 10:37:51;;;;;;;3.67;2.50;;;;;;;23.40;38.41;99883.13;4995513;28;20923;-79
2022/06/13 10:40:18;;;;;;;5.33;2.87;;;;;;;23.08;39.64;99890.16;4994951;28;20549;-78
2022/06/13 10:42:46;;;;;;;5.83;2.77;;;;;;;22.44;39.57;99893.13;4995349;28;20999;-79
2022/06/13 10:45:16;;;;;;;6.00;2.40;;;;;;;22.72;37.41;99890.25;4994482;28;20452;-79
2022/06/13 10:47:49;;;;;;;6.10;3.43;;;;;;;23.32;36.77;99881.22;4994985;28;20469;-79
2022/06/13 10:50:23;;;;;;;3.90;2.53;;;;;;;23.24;36.23;99873.78;4994899;28;20981;-78
2022/06/13 10:52:54;;;;;;;3.50;2.77;;;;;;;22.64;37.55;99884.72;4994088;28;20422;-79
2022/06/13 10:55:26;;;;;;;3.70;2.60;;;;;;;22.34;38.59;99892.38;4992604;28;20554;-80
2022/06/13 10:57:59;;;;;;;4.10;2.90;;;;;;;22.83;38.01;99876.25;4992561;28;20438;-80
2022/06/13 11:00:28;;;;;;;6.73;3.10;;;;;;;22.96;36.89;99875.81;4992374;28;20569;-80
2022/06/13 11:03:11;;;;;;;4.97;2.67;;;;;;;23.40;36.26;99869.38;4991976;28;20522;-80
2022/06/13 11:05:52;;;;;;;6.00;2.97;;;;;;;23.71;36.24;99883.41;4991964;28;20427;-80
2022/06/13 11:08:20;;;;;;;4.20;2.70;;;;;;;23.88;35.10;99879.72;4992271;28;20435;-80
2022/06/13 11:10:54;;;;;;;5.20;3.10;;;;;;;24.06;34.89;99885.09;4992009;28;20430;-80
2022/06/13 11:13:26;;;;;;;4.40;2.87;;;;;;;24.12;34.90;99878.03;4992186;28;20431;-80
2022/06/13 11:24:19;;;;;;;4.30;2.70;;;;;;;23.94;36.34;99881.78;4995722;28;20429;-80
2022/06/13 11:29:33;;;;;;;4.23;2.57;;;;;;;23.78;36.90;99884.50;5015200;28;20436;-80
2022/06/13 11:32:02;;;;;;;5.33;3.03;;;;;;;23.92;36.98;99882.97;5014866;28;20544;-80
2022/06/13 11:34:33;;;;;;;3.97;2.80;;;;;;;23.48;37.34;99869.44;5015180;28;20789;-80
2022/06/13 11:37:04;;;;;;;6.00;2.90;;;;;;;23.09;37.48;99878.19;5015415;28;20948;-78
2022/06/13 11:39:34;;;;;;;4.50;2.80;;;;;;;23.02;37.55;99880.72;5014589;28;20477;-79
2022/06/13 11:42:01;;;;;;;9.23;3.57;;;;;;;23.15;37.65;99876.66;5014721;28;20422;-79
2022/06/13 11:44:28;;;;;;;6.93;3.00;;;;;;;23.24;36.98;99879.25;5014820;28;20517;-79
2022/06/13 11:46:59;;;;;;;7.87;2.80;;;;;;;23.83;36.15;99878.50;5014107;28;20449;-79
2022/06/13 11:49:34;;;;;;;4.87;2.90;;;;;;;24.67;33.92;99869.13;5014821;28;20873;-79
2022/06/13 11:52:06;;;;;;;5.47;2.97;;;;;;;25.05;33.67;99869.38;5014656;28;20823;-79
2022/06/13 11:54:37;;;;;;;5.50;2.60;;;;;;;24.61;34.24;99867.06;5014616;28;20430;-79
2022/06/13 11:57:20;;;;;;;4.97;2.60;;;;;;;24.54;34.68;99864.16;5014973;28;20445;-79
2022/06/13 11:59:52;;;;;;;7.70;4.27;;;;;;;24.97;34.13;99859.25;5014873;28;20819;-79
2022/06/13 12:02:35;;;;;;;4.57;2.67;;;;;;;25.32;33.57;99859.84;5014632;28;20465;-79
2022/06/13 12:05:01;;;;;;;4.50;2.80;;;;;;;24.72;34.35;99855.69;5014805;28;20455;-79
2022/06/13 12:07:31;;;;;;;4.80;2.73;;;;;;;24.96;33.87;99860.31;5014534;28;20525;-79
2022/06/13 12:10:01;;;;;;;3.83;2.43;;;;;;;23.72;35.54;99857.63;5014138;28;20536;-80
2022/06/13 12:12:46;;;;;;;7.23;3.60;;;;;;;23.18;36.51;99857.09;5014510;28;20787;-78
2022/06/13 12:15:15;;;;;;;5.37;2.83;;;;;;;23.09;37.08;99846.06;5014577;28;20430;-80
2022/06/13 12:17:49;;;;;;;2.90;2.57;;;;;;;23.71;35.94;99850.41;5014556;28;20529;-78
2022/06/13 12:20:22;;;;;;;6.63;3.07;;;;;;;23.65;35.88;99842.84;5014607;28;20557;-80
2022/06/13 12:22:54;;;;;;;5.87;3.43;;;;;;;23.51;35.97;99852.59;5014438;28;20461;-79
2022/06/13 12:25:25;;;;;;;5.10;3.03;;;;;;;23.83;35.88;99851.00;5014006;28;20434;-79